Time;durP1;ratioP1;P1;durP2;ratioP2;P2;SDS_P1;SDS_P2;PMS_P1;PMS_P2;Temp;Humidity;BMP_temperature;BMP_pressure;BME280_temperature;BME280_humidity;BME280_pressure;Samples;Min_cycle;Max_cycle;Signal;HPM_P1;HPM_P2
2021/09/11 00:24:40;;;;;;;14.32;5.45;;;21.50;74.70;;;;;;104664969;28;20060;-60
2021/09/11 01:14:40;;;;;;;11.73;4.72;;;21.50;74.80;;;;;;104537055;28;20112;-58
2021/09/11 02:04:41;;;;;;;5.43;3.90;;;21.50;74.70;;;;;;104519517;28;20121;-59
2021/09/11 02:54:43;;;;;;;4.90;3.15;;;21.40;74.50;;;;;;104514277;28;20434;-59
2021/09/11 03:44:43;;;;;;;5.10;3.90;;;21.40;74.30;;;;;;104524545;28;20052;-58
2021/09/11 04:34:44;;;;;;;7.65;4.05;;;21.40;74.10;;;;;;104559946;28;20112;-59
2021/09/11 05:24:45;;;;;;;9.32;4.10;;;21.40;74.00;;;;;;104531982;28;20033;-60
2021/09/11 06:14:45;;;;;;;9.63;4.75;;;21.40;73.80;;;;;;104515292;28;20033;-59
2021/09/11 07:04:46;;;;;;;23.10;8.82;;;21.40;73.70;;;;;;103656506;23;20038;-68
2021/09/11 07:47:08;;;;;;;21.13;12.25;;;21.30;74.50;;;;;;20752887;28;20624;-66
2021/09/11 07:57:08;;;;;;;25.42;15.13;;;21.40;75.70;;;;;;20750036;28;20033;-65
2021/09/11 08:07:09;;;;;;;28.63;16.50;;;21.40;75.60;;;;;;20783713;28;20030;-63
2021/09/11 08:17:09;;;;;;;19.00;14.95;;;21.50;75.40;;;;;;20791527;28;20044;-62
2021/09/11 08:27:10;;;;;;;17.00;14.25;;;21.30;75.30;;;;;;20742853;28;20128;-63
2021/09/11 08:37:10;;;;;;;20.15;14.07;;;21.30;74.90;;;;;;20761087;28;20034;-65
2021/09/11 08:47:11;;;;;;;18.13;12.38;;;21.30;74.30;;;;;;20785534;28;20030;-65
2021/09/11 08:57:26;;;;;;;16.15;12.50;;;21.30;74.20;;;;;;20793960;28;20029;-65
2021/09/11 09:07:38;;;;;;;14.73;11.23;;;21.30;73.80;;;;;;20884684;28;20040;-62
2021/09/11 09:17:47;;;;;;;12.32;10.32;;;21.30;73.30;;;;;;20870875;28;20037;-63
2021/09/11 09:27:54;;;;;;;14.70;10.60;;;21.40;73.10;;;;;;20876904;28;20113;-64
2021/09/11 09:38:00;;;;;;;26.75;10.82;;;21.40;73.30;;;;;;20856569;28;20033;-64
2021/09/11 09:48:08;;;;;;;21.13;10.40;;;21.50;73.50;;;;;;20866467;28;20049;-64
2021/09/11 09:58:09;;;;;;;;;;;21.50;73.30;;;;;;20875195;28;20080;-65
2021/09/11 10:08:10;;;;;;;13.85;9.27;;;21.50;73.00;;;;;;20872949;28;19909;-65
2021/09/11 10:18:32;;;;;;;15.27;9.43;;;21.60;72.90;;;;;;20882062;28;20082;-64
2021/09/11 10:28:33;;;;;;;11.75;9.15;;;21.60;72.80;;;;;;20860311;28;20043;-64
2021/09/11 10:38:41;;;;;;;13.33;8.53;;;21.60;72.60;;;;;;20870973;28;20487;-64
2021/09/11 10:48:50;;;;;;;12.82;8.73;;;21.60;72.40;;;;;;20860090;28;20049;-65
2021/09/11 10:59:15;;;;;;;10.32;8.25;;;21.60;72.30;;;;;;20865997;28;20683;-65
2021/09/11 11:09:18;;;;;;;14.07;10.18;;;21.70;72.30;;;;;;20862313;28;20108;-66
2021/09/11 11:19:20;;;;;;;9.20;8.32;;;21.70;72.20;;;;;;20891456;28;20094;-64
2021/09/11 11:29:21;;;;;;;10.77;8.45;;;21.70;72.00;;;;;;20887925;28;20029;-65
2021/09/11 11:39:27;;;;;;;10.73;9.00;;;21.70;71.80;;;;;;20889468;28;20025;-65
2021/09/11 11:49:36;;;;;;;12.65;8.48;;;21.70;71.80;;;;;;20902011;28;20029;-64
2021/09/11 11:59:38;;;;;;;10.93;8.85;;;21.70;71.70;;;;;;20901953;28;20021;-63
2021/09/11 12:09:50;;;;;;;10.98;8.23;;;21.70;71.60;;;;;;20807556;28;20588;-63
2021/09/11 12:19:50;;;;;;;8.98;8.13;;;21.60;69.30;;;;;;20830357;28;20053;-63
2021/09/11 12:30:07;;;;;;;9.00;8.10;;;21.50;68.90;;;;;;20859841;28;20078;-63
2021/09/11 12:40:08;;;;;;;7.97;7.28;;;21.60;68.20;;;;;;20896744;23;20128;-59
2021/09/11 12:50:09;;;;;;;9.52;8.63;;;21.50;67.10;;;;;;20852508;28;20056;-59
2021/09/11 13:00:10;;;;;;;13.55;9.07;;;21.50;66.50;;;;;;20836998;28;20611;-57
2021/09/11 13:10:10;;;;;;;11.00;7.00;;;21.60;66.90;;;;;;20804448;28;20069;-56
2021/09/11 13:20:12;;;;;;;6.23;5.70;;;21.60;66.30;;;;;;20831014;28;20029;-61
2021/09/11 13:30:12;;;;;;;7.35;4.45;;;21.50;64.50;;;;;;20831590;28;20483;-61
2021/09/11 13:40:13;;;;;;;11.55;5.78;;;21.60;65.00;;;;;;20835120;28;20040;-61
2021/09/11 13:50:14;;;;;;;15.63;5.20;;;21.60;66.70;;;;;;20836385;28;20041;-61
2021/09/11 14:00:15;;;;;;;6.22;4.15;;;21.60;66.40;;;;;;20834620;28;20060;-58
2021/09/11 14:10:18;;;;;;;7.63;4.47;;;21.50;65.50;;;;;;20833777;28;20060;-61
2021/09/11 14:20:20;;;;;;;7.28;5.20;;;21.60;66.00;;;;;;20836114;28;20057;-61
2021/09/11 14:30:21;;;;;;;7.68;4.90;;;21.60;66.80;;;;;;20817538;28;20049;-61
2021/09/11 14:40:22;;;;;;;7.30;5.53;;;21.50;65.90;;;;;;20794116;28;20046;-61
2021/09/11 14:50:23;;;;;;;18.80;6.43;;;21.50;65.70;;;;;;20819606;28;20717;-61
2021/09/11 15:00:24;;;;;;;6.32;5.43;;;21.50;66.20;;;;;;20827127;28;20459;-61
2021/09/11 15:10:24;;;;;;;10.75;5.75;;;21.60;66.80;;;;;;20821533;28;20032;-61
2021/09/11 15:20:25;;;;;;;6.15;5.03;;;21.70;65.50;;;;;;20838277;28;20033;-60
2021/09/11 15:30:25;;;;;;;17.20;6.40;;;21.80;65.40;;;;;;20832704;28;20501;-61
2021/09/11 15:40:26;;;;;;;11.30;5.90;;;21.70;65.10;;;;;;20818519;28;20068;-60
2021/09/11 15:50:27;;;;;;;6.75;4.43;;;21.90;65.20;;;;;;20817896;28;20100;-60
2021/09/11 16:00:27;;;;;;;5.57;5.05;;;21.90;65.20;;;;;;20818675;28;20407;-61
2021/09/11 16:10:28;;;;;;;13.90;6.07;;;22.00;65.00;;;;;;20833576;28;20427;-61
2021/09/11 16:20:28;;;;;;;9.30;5.90;;;22.00;65.20;;;;;;20834296;28;20038;-59
2021/09/11 16:30:29;;;;;;;8.45;6.05;;;21.90;65.20;;;;;;20841327;28;20105;-57
2021/09/11 16:40:29;;;;;;;9.38;6.30;;;22.00;66.00;;;;;;20832683;28;20033;-59
2021/09/11 16:50:34;;;;;;;9.75;7.30;;;22.00;66.40;;;;;;20829581;28;20033;-61
2021/09/11 17:00:37;;;;;;;8.27;6.70;;;21.90;67.00;;;;;;20848808;28;20025;-62
2021/09/11 17:10:39;;;;;;;7.65;6.93;;;21.90;66.60;;;;;;20852301;28;20029;-59
2021/09/11 17:20:41;;;;;;;11.30;7.00;;;21.80;66.90;;;;;;20828838;28;20535;-61
2021/09/11 17:30:41;;;;;;;10.45;6.35;;;21.80;67.20;;;;;;20835300;28;20075;-60
2021/09/11 17:40:42;;;;;;;13.15;7.90;;;21.80;67.70;;;;;;20840428;28;20041;-60
2021/09/11 17:50:42;;;;;;;9.32;8.10;;;21.80;67.60;;;;;;20827678;28;20099;-58
2021/09/11 18:00:43;;;;;;;9.55;8.20;;;21.70;67.80;;;;;;20827103;28;20411;-60
2021/09/11 18:10:44;;;;;;;9.90;8.60;;;21.70;67.90;;;;;;20808014;28;20053;-59
2021/09/11 18:20:44;;;;;;;10.20;8.65;;;21.70;67.90;;;;;;20829701;28;20395;-60
2021/09/11 18:30:45;;;;;;;10.40;8.30;;;21.70;67.60;;;;;;20811039;28;20117;-61
2021/09/11 18:40:45;;;;;;;10.35;7.88;;;21.60;67.40;;;;;;20822351;28;20078;-60
2021/09/11 18:50:47;;;;;;;8.60;7.78;;;21.60;67.40;;;;;;20837838;28;20419;-60
2021/09/11 19:00:48;;;;;;;8.30;7.43;;;21.50;67.30;;;;;;20817588;28;20034;-59
2021/09/11 19:10:49;;;;;;;8.77;7.65;;;21.50;67.40;;;;;;20831610;28;20045;-60
2021/09/11 19:20:50;;;;;;;8.73;7.75;;;21.50;67.60;;;;;;20815902;28;20040;-59
2021/09/11 19:30:52;;;;;;;7.87;7.17;;;21.50;67.80;;;;;;20817512;28;20021;-60
2021/09/11 19:40:52;;;;;;;7.53;6.78;;;21.40;67.40;;;;;;20809996;28;20037;-59
2021/09/11 19:50:53;;;;;;;7.78;6.97;;;21.40;67.20;;;;;;20820079;28;20080;-59
2021/09/11 20:00:54;;;;;;;9.57;6.90;;;21.40;67.10;;;;;;20821634;28;20030;-57
2021/09/11 20:10:56;;;;;;;7.45;6.40;;;21.30;66.70;;;;;;20817821;28;20039;-59
2021/09/11 20:20:57;;;;;;;8.45;6.65;;;21.30;66.70;;;;;;20819423;28;20108;-60
2021/09/11 20:30:57;;;;;;;8.07;5.72;;;21.30;66.60;;;;;;20817310;28;20068;-59
2021/09/11 20:40:58;;;;;;;6.88;5.90;;;21.30;66.80;;;;;;20818961;28;20041;-58
2021/09/11 20:51:00;;;;;;;6.07;5.55;;;21.30;67.00;;;;;;20838779;28;20036;-60
2021/09/11 21:01:00;;;;;;;8.00;7.20;;;21.20;67.00;;;;;;20840559;28;20048;-60
2021/09/11 21:11:01;;;;;;;6.20;5.60;;;21.20;67.10;;;;;;20839403;28;20373;-61
2021/09/11 21:21:01;;;;;;;8.68;6.93;;;21.20;67.00;;;;;;20837206;28;20029;-56
2021/09/11 21:31:02;;;;;;;8.88;6.70;;;21.20;67.20;;;;;;20828860;28;20029;-58
2021/09/11 21:41:02;;;;;;;6.60;5.95;;;21.20;67.10;;;;;;20825761;28;20534;-60
2021/09/11 21:51:03;;;;;;;6.97;6.27;;;21.20;67.20;;;;;;20824808;28;20025;-59
2021/09/11 22:01:04;;;;;;;6.83;6.03;;;21.10;67.20;;;;;;20828002;28;20476;-60
2021/09/11 22:11:06;;;;;;;8.47;6.20;;;21.10;67.30;;;;;;20817516;28;20456;-60
2021/09/11 22:21:09;;;;;;;7.30;6.60;;;21.10;67.30;;;;;;20822058;28;20463;-60
2021/09/11 22:31:11;;;;;;;6.13;5.22;;;21.10;67.60;;;;;;20823922;28;20053;-60
2021/09/11 22:41:11;;;;;;;7.78;5.53;;;21.10;68.10;;;;;;20823522;28;20091;-60
2021/09/11 22:51:12;;;;;;;9.30;5.10;;;21.10;67.60;;;;;;20823376;28;20484;-60
2021/09/11 23:01:12;;;;;;;6.82;5.10;;;21.10;67.70;;;;;;20779085;28;20035;-60
2021/09/11 23:11:13;;;;;;;7.60;5.25;;;21.10;68.00;;;;;;20656967;28;20089;-59
2021/09/11 23:21:13;;;;;;;10.20;5.47;;;21.10;68.10;;;;;;20719154;28;20029;-55
2021/09/11 23:31:14;;;;;;;14.40;5.57;;;21.20;68.20;;;;;;20736956;28;20113;-54
2021/09/11 23:41:15;;;;;;;10.10;5.00;;;21.10;68.30;;;;;;20737477;28;20053;-54
2021/09/11 23:51:20;;;;;;;7.53;5.03;;;21.10;68.40;;;;;;20740893;28;20465;-56
